sensor_id;sensor_type;location;lat;lon;timestamp;pressure;altitude;pressure_sealevel;temperature;humidity
54870;BME280;40756;-37.950;145.008;2023-02-28T00:01:51;101052.22;;;18.97;51.23
54870;BME280;40756;-37.950;145.008;2023-02-28T00:04:20;101050.61;;;18.80;50.24
54870;BME280;40756;-37.950;145.008;2023-02-28T00:06:50;101050.15;;;18.95;49.88
54870;BME280;40756;-37.950;145.008;2023-02-28T00:09:19;101051.60;;;18.47;51.51
54870;BME280;40756;-37.950;145.008;2023-02-28T00:11:49;101048.29;;;18.79;50.37
54870;BME280;40756;-37.950;145.008;2023-02-28T00:14:19;101044.50;;;18.37;50.28
54870;BME280;40756;-37.950;145.008;2023-02-28T00:16:50;101044.18;;;19.31;49.95
54870;BME280;40756;-37.950;145.008;2023-02-28T00:19:20;101043.71;;;18.98;50.64
54870;BME280;40756;-37.950;145.008;2023-02-28T00:21:49;101046.95;;;19.43;50.46
54870;BME280;40756;-37.950;145.008;2023-02-28T00:24:19;101042.72;;;18.93;50.43
54870;BME280;40756;-37.950;145.008;2023-02-28T00:26:49;101037.86;;;18.51;52.63
54870;BME280;40756;-37.950;145.008;2023-02-28T00:29:18;101038.77;;;18.55;52.77
54870;BME280;40756;-37.950;145.008;2023-02-28T00:31:49;101037.27;;;18.38;54.57
54870;BME280;40756;-37.950;145.008;2023-02-28T00:34:18;101038.15;;;18.70;54.91
54870;BME280;40756;-37.950;145.008;2023-02-28T00:36:48;101035.71;;;18.29;57.34
54870;BME280;40756;-37.950;145.008;2023-02-28T00:39:18;101033.36;;;18.05;57.64
54870;BME280;40756;-37.950;145.008;2023-02-28T00:41:48;101033.99;;;17.54;60.44
54870;BME280;40756;-37.950;145.008;2023-02-28T00:44:17;101028.10;;;16.98;62.05
54870;BME280;40756;-37.950;145.008;2023-02-28T00:46:47;101020.05;;;17.25;60.94
54870;BME280;40756;-37.950;145.008;2023-02-28T00:49:16;101012.96;;;17.97;58.88
54870;BME280;40756;-37.950;145.008;2023-02-28T00:51:46;101012.08;;;18.81;57.26
54870;BME280;40756;-37.950;145.008;2023-02-28T00:54:15;101008.90;;;18.38;57.20
54870;BME280;40756;-37.950;145.008;2023-02-28T00:56:44;101012.42;;;18.96;55.55
54870;BME280;40756;-37.950;145.008;2023-02-28T00:59:15;101010.67;;;18.54;56.27
54870;BME280;40756;-37.950;145.008;2023-02-28T01:01:45;100998.64;;;18.46;56.71
54870;BME280;40756;-37.950;145.008;2023-02-28T01:04:15;100997.02;;;17.85;57.97
54870;BME280;40756;-37.950;145.008;2023-02-28T01:06:45;100994.22;;;18.24;57.55
54870;BME280;40756;-37.950;145.008;2023-02-28T01:09:15;100993.14;;;17.81;58.55
54870;BME280;40756;-37.950;145.008;2023-02-28T01:11:45;100992.74;;;17.77;59.40
54870;BME280;40756;-37.950;145.008;2023-02-28T01:14:17;100985.61;;;17.87;59.49
54870;BME280;40756;-37.950;145.008;2023-02-28T01:16:48;100987.04;;;17.14;60.87
54870;BME280;40756;-37.950;145.008;2023-02-28T01:19:18;100979.53;;;17.68;60.69
54870;BME280;40756;-37.950;145.008;2023-02-28T01:21:48;100979.63;;;16.85;61.59
54870;BME280;40756;-37.950;145.008;2023-02-28T01:24:18;100979.12;;;17.91;60.97
54870;BME280;40756;-37.950;145.008;2023-02-28T01:26:47;100981.28;;;17.53;60.74
54870;BME280;40756;-37.950;145.008;2023-02-28T01:29:17;100976.21;;;16.99;61.63
54870;BME280;40756;-37.950;145.008;2023-02-28T01:31:46;100974.02;;;17.68;61.53
54870;BME280;40756;-37.950;145.008;2023-02-28T01:34:16;100977.55;;;18.14;60.22
54870;BME280;40756;-37.950;145.008;2023-02-28T01:36:45;100978.76;;;17.95;60.33
54870;BME280;40756;-37.950;145.008;2023-02-28T01:39:15;100975.16;;;17.72;61.01
54870;BME280;40756;-37.950;145.008;2023-02-28T01:41:45;100973.78;;;17.31;62.02
54870;BME280;40756;-37.950;145.008;2023-02-28T01:45:23;100966.25;;;17.17;62.02
54870;BME280;40756;-37.950;145.008;2023-02-28T01:47:58;100965.93;;;16.32;63.70
54870;BME280;40756;-37.950;145.008;2023-02-28T01:50:33;100959.06;;;17.09;62.71
54870;BME280;40756;-37.950;145.008;2023-02-28T01:53:06;100954.38;;;16.88;62.33
54870;BME280;40756;-37.950;145.008;2023-02-28T01:55:36;100951.35;;;17.36;61.98
54870;BME280;40756;-37.950;145.008;2023-02-28T01:58:07;100949.78;;;17.34;61.64
54870;BME280;40756;-37.950;145.008;2023-02-28T02:00:38;100947.83;;;17.13;62.33
54870;BME280;40756;-37.950;145.008;2023-02-28T02:03:10;100948.01;;;17.43;61.33
54870;BME280;40756;-37.950;145.008;2023-02-28T02:05:42;100944.19;;;17.50;61.36
54870;BME280;40756;-37.950;145.008;2023-02-28T02:08:13;100941.62;;;16.68;62.10
54870;BME280;40756;-37.950;145.008;2023-02-28T02:10:45;100939.40;;;16.72;61.73
54870;BME280;40756;-37.950;145.008;2023-02-28T02:13:48;100939.26;;;16.49;62.61
54870;BME280;40756;-37.950;145.008;2023-02-28T02:16:33;100937.10;;;16.86;62.85
54870;BME280;40756;-37.950;145.008;2023-02-28T02:19:21;100927.97;;;16.85;62.18
54870;BME280;40756;-37.950;145.008;2023-02-28T02:22:13;100925.74;;;17.61;60.80
54870;BME280;40756;-37.950;145.008;2023-02-28T02:25:18;100923.22;;;17.29;60.81
54870;BME280;40756;-37.950;145.008;2023-02-28T02:30:22;100915.32;;;18.07;61.64
54870;BME280;40756;-37.950;145.008;2023-02-28T02:33:23;100910.57;;;17.37;60.71
54870;BME280;40756;-37.950;145.008;2023-02-28T02:35:57;100905.56;;;17.74;59.66
54870;BME280;40756;-37.950;145.008;2023-02-28T02:38:37;100902.64;;;17.49;60.05
54870;BME280;40756;-37.950;145.008;2023-02-28T02:41:16;100900.64;;;18.09;58.79
54870;BME280;40756;-37.950;145.008;2023-02-28T02:43:52;100902.23;;;18.31;58.50
54870;BME280;40756;-37.950;145.008;2023-02-28T02:46:28;100903.49;;;17.45;59.50
54870;BME280;40756;-37.950;145.008;2023-02-28T02:49:00;100900.93;;;17.29;58.36
54870;BME280;40756;-37.950;145.008;2023-02-28T02:51:34;100896.90;;;18.24;58.17
54870;BME280;40756;-37.950;145.008;2023-02-28T02:54:08;100900.94;;;17.96;58.45
54870;BME280;40756;-37.950;145.008;2023-02-28T02:56:42;100907.44;;;17.45;58.47
54870;BME280;40756;-37.950;145.008;2023-02-28T02:59:15;100910.90;;;17.42;58.26
54870;BME280;40756;-37.950;145.008;2023-02-28T03:01:45;100913.40;;;17.80;57.69
54870;BME280;40756;-37.950;145.008;2023-02-28T03:04:18;100921.80;;;17.70;57.44
54870;BME280;40756;-37.950;145.008;2023-02-28T03:06:49;100915.63;;;17.12;58.86
54870;BME280;40756;-37.950;145.008;2023-02-28T03:09:20;100909.36;;;17.19;58.78
54870;BME280;40756;-37.950;145.008;2023-02-28T03:11:50;100909.56;;;18.07;56.93
54870;BME280;40756;-37.950;145.008;2023-02-28T03:14:28;100907.74;;;17.72;56.85
54870;BME280;40756;-37.950;145.008;2023-02-28T03:17:13;100899.78;;;17.92;56.85
54870;BME280;40756;-37.950;145.008;2023-02-28T03:19:57;100894.25;;;17.43;56.83
54870;BME280;40756;-37.950;145.008;2023-02-28T03:22:42;100898.72;;;17.58;57.95
54870;BME280;40756;-37.950;145.008;2023-02-28T03:25:20;100897.27;;;17.92;57.02
54870;BME280;40756;-37.950;145.008;2023-02-28T03:27:59;100887.85;;;17.73;57.40
54870;BME280;40756;-37.950;145.008;2023-02-28T03:30:36;100890.04;;;17.54;57.53
54870;BME280;40756;-37.950;145.008;2023-02-28T03:33:11;100885.49;;;18.59;55.98
54870;BME280;40756;-37.950;145.008;2023-02-28T03:35:47;100890.11;;;18.27;55.34
54870;BME280;40756;-37.950;145.008;2023-02-28T03:38:25;100899.00;;;18.06;55.56
54870;BME280;40756;-37.950;145.008;2023-02-28T03:41:01;100902.02;;;17.47;56.48
54870;BME280;40756;-37.950;145.008;2023-02-28T03:43:37;100901.42;;;17.74;56.32
54870;BME280;40756;-37.950;145.008;2023-02-28T03:46:12;100908.32;;;17.52;56.76
54870;BME280;40756;-37.950;145.008;2023-02-28T03:48:45;100910.59;;;17.79;55.60
54870;BME280;40756;-37.950;145.008;2023-02-28T03:51:19;100904.33;;;17.04;57.98
54870;BME280;40756;-37.950;145.008;2023-02-28T03:53:54;100909.46;;;17.94;56.31
54870;BME280;40756;-37.950;145.008;2023-02-28T03:56:31;100909.38;;;17.96;55.81
54870;BME280;40756;-37.950;145.008;2023-02-28T03:59:06;100914.07;;;17.87;55.81
54870;BME280;40756;-37.950;145.008;2023-02-28T04:01:41;100914.45;;;17.38;56.64
54870;BME280;40756;-37.950;145.008;2023-02-28T04:04:12;100909.94;;;17.65;56.08
54870;BME280;40756;-37.950;145.008;2023-02-28T04:06:44;100917.63;;;17.15;57.17
54870;BME280;40756;-37.950;145.008;2023-02-28T04:09:14;100920.16;;;16.54;57.67
54870;BME280;40756;-37.950;145.008;2023-02-28T04:11:46;100914.52;;;16.90;57.22
54870;BME280;40756;-37.950;145.008;2023-02-28T04:14:18;100909.83;;;17.60;55.96
54870;BME280;40756;-37.950;145.008;2023-02-28T04:16:48;100903.96;;;17.47;55.72
54870;BME280;40756;-37.950;145.008;2023-02-28T04:19:18;100895.82;;;17.95;55.64
54870;BME280;40756;-37.950;145.008;2023-02-28T04:21:50;100890.04;;;18.17;55.11
54870;BME280;40756;-37.950;145.008;2023-02-28T04:24:22;100884.90;;;18.40;54.76
54870;BME280;40756;-37.950;145.008;2023-02-28T04:26:55;100883.56;;;18.81;53.54
54870;BME280;40756;-37.950;145.008;2023-02-28T04:29:26;100888.93;;;17.65;53.72
54870;BME280;40756;-37.950;145.008;2023-02-28T04:31:57;100885.29;;;17.50;54.49
54870;BME280;40756;-37.950;145.008;2023-02-28T04:34:28;100880.47;;;17.19;54.65
54870;BME280;40756;-37.950;145.008;2023-02-28T04:36:58;100884.28;;;17.68;54.51
54870;BME280;40756;-37.950;145.008;2023-02-28T04:39:27;100879.29;;;18.24;52.97
54870;BME280;40756;-37.950;145.008;2023-02-28T04:41:57;100877.77;;;17.76;53.63
54870;BME280;40756;-37.950;145.008;2023-02-28T04:44:26;100872.05;;;18.14;52.28
54870;BME280;40756;-37.950;145.008;2023-02-28T04:46:56;100868.61;;;18.29;52.13
54870;BME280;40756;-37.950;145.008;2023-02-28T04:49:26;100872.09;;;17.81;52.42
54870;BME280;40756;-37.950;145.008;2023-02-28T04:51:55;100872.47;;;17.17;53.32
54870;BME280;40756;-37.950;145.008;2023-02-28T04:54:25;100872.84;;;17.80;52.59
54870;BME280;40756;-37.950;145.008;2023-02-28T04:56:54;100874.62;;;17.96;52.43
54870;BME280;40756;-37.950;145.008;2023-02-28T04:59:24;100871.72;;;18.36;52.07
54870;BME280;40756;-37.950;145.008;2023-02-28T05:01:53;100863.85;;;17.57;52.08
54870;BME280;40756;-37.950;145.008;2023-02-28T05:04:23;100866.05;;;17.35;53.61
54870;BME280;40756;-37.950;145.008;2023-02-28T05:06:52;100872.97;;;18.35;52.07
54870;BME280;40756;-37.950;145.008;2023-02-28T05:09:22;100870.11;;;18.13;52.09
54870;BME280;40756;-37.950;145.008;2023-02-28T05:11:51;100864.91;;;18.13;52.12
54870;BME280;40756;-37.950;145.008;2023-02-28T05:14:21;100869.82;;;18.69;50.98
54870;BME280;40756;-37.950;145.008;2023-02-28T05:16:50;100879.33;;;17.64;51.65
54870;BME280;40756;-37.950;145.008;2023-02-28T05:19:20;100874.42;;;18.34;49.66
54870;BME280;40756;-37.950;145.008;2023-02-28T05:21:52;100882.47;;;18.38;49.69
54870;BME280;40756;-37.950;145.008;2023-02-28T05:24:24;100888.82;;;17.73;50.06
54870;BME280;40756;-37.950;145.008;2023-02-28T05:26:55;100886.68;;;18.40;49.41
54870;BME280;40756;-37.950;145.008;2023-02-28T05:29:24;100875.45;;;18.13;49.67
54870;BME280;40756;-37.950;145.008;2023-02-28T05:31:54;100868.56;;;18.60;49.23
54870;BME280;40756;-37.950;145.008;2023-02-28T05:34:23;100869.64;;;17.07;51.70
54870;BME280;40756;-37.950;145.008;2023-02-28T05:36:53;100860.66;;;17.77;51.92
54870;BME280;40756;-37.950;145.008;2023-02-28T05:39:22;100851.19;;;18.15;50.76
54870;BME280;40756;-37.950;145.008;2023-02-28T05:41:52;100853.29;;;18.40;50.86
54870;BME280;40756;-37.950;145.008;2023-02-28T05:44:22;100857.91;;;17.41;51.53
54870;BME280;40756;-37.950;145.008;2023-02-28T05:46:51;100848.94;;;18.46;50.16
54870;BME280;40756;-37.950;145.008;2023-02-28T05:49:21;100834.03;;;18.10;50.22
54870;BME280;40756;-37.950;145.008;2023-02-28T05:51:50;100829.53;;;18.43;49.84
54870;BME280;40756;-37.950;145.008;2023-02-28T05:54:20;100842.30;;;18.44;49.11
54870;BME280;40756;-37.950;145.008;2023-02-28T05:56:49;100844.92;;;18.93;48.21
54870;BME280;40756;-37.950;145.008;2023-02-28T05:59:21;100840.04;;;19.10;48.68
54870;BME280;40756;-37.950;145.008;2023-02-28T06:01:51;100840.93;;;18.11;49.15
54870;BME280;40756;-37.950;145.008;2023-02-28T06:04:21;100846.62;;;18.67;48.66
54870;BME280;40756;-37.950;145.008;2023-02-28T06:06:51;100862.92;;;18.89;47.32
54870;BME280;40756;-37.950;145.008;2023-02-28T06:09:20;100859.78;;;17.68;48.24
54870;BME280;40756;-37.950;145.008;2023-02-28T06:11:50;100854.15;;;18.07;48.93
54870;BME280;40756;-37.950;145.008;2023-02-28T06:14:20;100853.06;;;17.66;49.67
54870;BME280;40756;-37.950;145.008;2023-02-28T06:16:50;100857.41;;;18.53;47.26
54870;BME280;40756;-37.950;145.008;2023-02-28T06:19:20;100858.05;;;18.22;47.52
54870;BME280;40756;-37.950;145.008;2023-02-28T06:21:54;100863.92;;;17.70;48.65
54870;BME280;40756;-37.950;145.008;2023-02-28T06:24:26;100861.53;;;16.88;49.24
54870;BME280;40756;-37.950;145.008;2023-02-28T06:26:55;100860.08;;;18.38;47.55
54870;BME280;40756;-37.950;145.008;2023-02-28T06:29:26;100857.00;;;18.52;47.03
54870;BME280;40756;-37.950;145.008;2023-02-28T06:31:56;100861.66;;;18.27;47.63
54870;BME280;40756;-37.950;145.008;2023-02-28T06:34:25;100866.80;;;18.51;46.93
54870;BME280;40756;-37.950;145.008;2023-02-28T06:36:55;100868.89;;;18.47;46.44
54870;BME280;40756;-37.950;145.008;2023-02-28T06:39:25;100869.12;;;18.61;46.51
54870;BME280;40756;-37.950;145.008;2023-02-28T06:41:55;100876.35;;;19.05;46.16
54870;BME280;40756;-37.950;145.008;2023-02-28T06:44:25;100869.58;;;18.20;46.50
54870;BME280;40756;-37.950;145.008;2023-02-28T06:46:56;100863.26;;;18.13;46.29
54870;BME280;40756;-37.950;145.008;2023-02-28T06:49:27;100862.73;;;18.40;46.12
54870;BME280;40756;-37.950;145.008;2023-02-28T06:51:57;100867.14;;;17.89;47.16
54870;BME280;40756;-37.950;145.008;2023-02-28T06:54:26;100864.70;;;18.03;46.33
54870;BME280;40756;-37.950;145.008;2023-02-28T06:56:57;100863.94;;;18.50;45.56
54870;BME280;40756;-37.950;145.008;2023-02-28T06:59:27;100870.28;;;17.86;47.39
54870;BME280;40756;-37.950;145.008;2023-02-28T07:01:57;100871.25;;;18.53;47.93
54870;BME280;40756;-37.950;145.008;2023-02-28T07:04:26;100877.98;;;18.11;47.37
54870;BME280;40756;-37.950;145.008;2023-02-28T07:06:56;100874.70;;;18.21;46.18
54870;BME280;40756;-37.950;145.008;2023-02-28T07:09:26;100868.83;;;18.05;46.70
54870;BME280;40756;-37.950;145.008;2023-02-28T07:11:55;100867.64;;;18.23;47.05
54870;BME280;40756;-37.950;145.008;2023-02-28T07:14:25;100870.80;;;18.72;45.98
54870;BME280;40756;-37.950;145.008;2023-02-28T07:16:54;100869.34;;;18.17;46.00
54870;BME280;40756;-37.950;145.008;2023-02-28T07:19:24;100876.34;;;16.73;46.89
54870;BME280;40756;-37.950;145.008;2023-02-28T07:21:54;100873.83;;;17.84;46.13
54870;BME280;40756;-37.950;145.008;2023-02-28T07:24:24;100870.48;;;17.14;47.30
54870;BME280;40756;-37.950;145.008;2023-02-28T07:26:54;100870.63;;;17.26;47.24
54870;BME280;40756;-37.950;145.008;2023-02-28T07:29:24;100870.52;;;17.10;47.95
54870;BME280;40756;-37.950;145.008;2023-02-28T07:31:53;100872.99;;;17.75;47.10
54870;BME280;40756;-37.950;145.008;2023-02-28T07:34:24;100869.04;;;17.91;46.18
54870;BME280;40756;-37.950;145.008;2023-02-28T07:36:55;100871.23;;;17.81;46.05
54870;BME280;40756;-37.950;145.008;2023-02-28T07:39:25;100874.18;;;17.82;46.16
54870;BME280;40756;-37.950;145.008;2023-02-28T07:41:55;100878.88;;;17.77;46.00
54870;BME280;40756;-37.950;145.008;2023-02-28T07:44:24;100881.31;;;17.60;45.59
54870;BME280;40756;-37.950;145.008;2023-02-28T07:46:53;100880.28;;;18.28;44.45
54870;BME280;40756;-37.950;145.008;2023-02-28T07:49:23;100881.96;;;16.80;47.05
54870;BME280;40756;-37.950;145.008;2023-02-28T07:51:52;100886.37;;;17.84;45.26
54870;BME280;40756;-37.950;145.008;2023-02-28T07:54:22;100886.84;;;17.54;46.39
54870;BME280;40756;-37.950;145.008;2023-02-28T07:56:51;100886.34;;;17.82;45.57
54870;BME280;40756;-37.950;145.008;2023-02-28T07:59:21;100886.88;;;18.58;45.26
54870;BME280;40756;-37.950;145.008;2023-02-28T08:01:51;100889.85;;;17.95;45.40
54870;BME280;40756;-37.950;145.008;2023-02-28T08:04:20;100897.57;;;17.73;45.14
54870;BME280;40756;-37.950;145.008;2023-02-28T08:06:50;100899.97;;;17.99;45.22
54870;BME280;40756;-37.950;145.008;2023-02-28T08:09:19;100895.40;;;18.33;44.79
54870;BME280;40756;-37.950;145.008;2023-02-28T08:11:49;100893.07;;;17.83;45.32
54870;BME280;40756;-37.950;145.008;2023-02-28T08:14:18;100893.84;;;17.54;45.88
54870;BME280;40756;-37.950;145.008;2023-02-28T08:16:48;100894.80;;;16.67;47.27
54870;BME280;40756;-37.950;145.008;2023-02-28T08:19:17;100891.10;;;18.04;45.68
54870;BME280;40756;-37.950;145.008;2023-02-28T08:21:47;100891.21;;;18.02;45.24
54870;BME280;40756;-37.950;145.008;2023-02-28T08:24:17;100889.62;;;17.31;45.78
54870;BME280;40756;-37.950;145.008;2023-02-28T08:26:48;100885.44;;;17.59;45.80
54870;BME280;40756;-37.950;145.008;2023-02-28T08:29:17;100887.03;;;17.31;46.39
54870;BME280;40756;-37.950;145.008;2023-02-28T08:31:47;100889.66;;;17.66;45.43
54870;BME280;40756;-37.950;145.008;2023-02-28T08:34:17;100892.22;;;16.83;46.74
54870;BME280;40756;-37.950;145.008;2023-02-28T08:36:46;100894.90;;;17.46;45.85
54870;BME280;40756;-37.950;145.008;2023-02-28T08:39:16;100898.09;;;18.03;44.67
54870;BME280;40756;-37.950;145.008;2023-02-28T08:41:45;100898.29;;;17.99;44.43
54870;BME280;40756;-37.950;145.008;2023-02-28T08:44:15;100899.48;;;17.57;45.14
54870;BME280;40756;-37.950;145.008;2023-02-28T08:46:45;100907.70;;;17.49;45.36
54870;BME280;40756;-37.950;145.008;2023-02-28T08:49:14;100915.73;;;17.61;44.95
54870;BME280;40756;-37.950;145.008;2023-02-28T08:51:44;100915.93;;;17.34;45.59
54870;BME280;40756;-37.950;145.008;2023-02-28T08:54:13;100920.66;;;17.45;45.18
54870;BME280;40756;-37.950;145.008;2023-02-28T08:56:43;100920.16;;;17.26;45.72
54870;BME280;40756;-37.950;145.008;2023-02-28T08:59:12;100922.43;;;16.51;46.98
54870;BME280;40756;-37.950;145.008;2023-02-28T09:01:42;100921.52;;;17.34;45.54
54870;BME280;40756;-37.950;145.008;2023-02-28T09:04:11;100921.38;;;17.34;45.76
54870;BME280;40756;-37.950;145.008;2023-02-28T09:06:41;100924.36;;;17.44;45.68
54870;BME280;40756;-37.950;145.008;2023-02-28T09:09:10;100926.62;;;17.20;45.64
54870;BME280;40756;-37.950;145.008;2023-02-28T09:11:40;100935.68;;;17.87;44.82
54870;BME280;40756;-37.950;145.008;2023-02-28T09:14:10;100949.54;;;17.38;45.66
54870;BME280;40756;-37.950;145.008;2023-02-28T09:16:39;100948.67;;;16.94;46.59
54870;BME280;40756;-37.950;145.008;2023-02-28T09:19:11;100945.53;;;17.38;46.43
54870;BME280;40756;-37.950;145.008;2023-02-28T09:21:41;100950.48;;;17.38;46.38
54870;BME280;40756;-37.950;145.008;2023-02-28T09:24:11;100958.15;;;17.42;46.46
54870;BME280;40756;-37.950;145.008;2023-02-28T09:26:41;100964.37;;;17.80;45.83
54870;BME280;40756;-37.950;145.008;2023-02-28T09:29:11;100966.78;;;17.88;45.49
54870;BME280;40756;-37.950;145.008;2023-02-28T09:31:43;100973.41;;;16.79;47.22
54870;BME280;40756;-37.950;145.008;2023-02-28T09:34:12;100972.91;;;17.28;46.68
54870;BME280;40756;-37.950;145.008;2023-02-28T09:36:42;100975.79;;;17.66;46.17
54870;BME280;40756;-37.950;145.008;2023-02-28T09:39:12;100983.75;;;17.83;45.38
54870;BME280;40756;-37.950;145.008;2023-02-28T09:41:44;100989.19;;;17.17;46.45
54870;BME280;40756;-37.950;145.008;2023-02-28T09:44:19;100987.15;;;17.20;46.34
54870;BME280;40756;-37.950;145.008;2023-02-28T09:46:56;100996.65;;;17.69;45.88
54870;BME280;40756;-37.950;145.008;2023-02-28T09:49:33;101014.11;;;17.54;46.44
54870;BME280;40756;-37.950;145.008;2023-02-28T09:52:08;101013.34;;;17.74;46.19
54870;BME280;40756;-37.950;145.008;2023-02-28T09:54:39;101017.91;;;17.62;46.11
54870;BME280;40756;-37.950;145.008;2023-02-28T09:57:15;101011.92;;;17.92;45.64
54870;BME280;40756;-37.950;145.008;2023-02-28T09:59:56;101010.53;;;17.78;45.70
54870;BME280;40756;-37.950;145.008;2023-02-28T10:02:54;101013.59;;;17.63;45.75
54870;BME280;40756;-37.950;145.008;2023-02-28T10:05:30;101018.18;;;17.63;45.39
54870;BME280;40756;-37.950;145.008;2023-02-28T10:08:10;101025.31;;;18.09;44.80
54870;BME280;40756;-37.950;145.008;2023-02-28T10:10:42;101025.90;;;18.17;44.37
54870;BME280;40756;-37.950;145.008;2023-02-28T10:13:20;101029.84;;;17.75;45.34
54870;BME280;40756;-37.950;145.008;2023-02-28T10:15:55;101034.80;;;17.31;45.36
54870;BME280;40756;-37.950;145.008;2023-02-28T10:18:29;101039.99;;;17.84;45.17
54870;BME280;40756;-37.950;145.008;2023-02-28T10:21:00;101035.46;;;17.43;45.52
54870;BME280;40756;-37.950;145.008;2023-02-28T10:23:31;101029.04;;;17.75;44.79
54870;BME280;40756;-37.950;145.008;2023-02-28T10:26:12;101033.31;;;17.63;45.14
54870;BME280;40756;-37.950;145.008;2023-02-28T10:28:47;101039.93;;;17.19;45.94
54870;BME280;40756;-37.950;145.008;2023-02-28T10:31:19;101040.99;;;17.03;46.00
54870;BME280;40756;-37.950;145.008;2023-02-28T10:33:49;101035.44;;;17.85;44.93
54870;BME280;40756;-37.950;145.008;2023-02-28T10:36:21;101035.95;;;18.08;44.21
54870;BME280;40756;-37.950;145.008;2023-02-28T10:38:50;101038.08;;;17.89;44.22
54870;BME280;40756;-37.950;145.008;2023-02-28T10:41:29;101038.50;;;18.06;44.50
54870;BME280;40756;-37.950;145.008;2023-02-28T10:44:19;101044.57;;;17.68;45.03
54870;BME280;40756;-37.950;145.008;2023-02-28T10:46:51;101042.22;;;17.77;44.73
54870;BME280;40756;-37.950;145.008;2023-02-28T10:49:23;101038.95;;;18.19;44.61
54870;BME280;40756;-37.950;145.008;2023-02-28T10:51:54;101037.82;;;18.02;44.09
54870;BME280;40756;-37.950;145.008;2023-02-28T10:54:28;101040.48;;;17.83;44.15
54870;BME280;40756;-37.950;145.008;2023-02-28T10:57:31;101039.28;;;17.30;45.30
54870;BME280;40756;-37.950;145.008;2023-02-28T11:00:15;101037.06;;;17.51;44.76
54870;BME280;40756;-37.950;145.008;2023-02-28T11:02:46;101034.93;;;18.20;43.58
54870;BME280;40756;-37.950;145.008;2023-02-28T11:05:33;101036.14;;;17.80;44.08
54870;BME280;40756;-37.950;145.008;2023-02-28T11:08:10;101034.93;;;18.35;44.03
54870;BME280;40756;-37.950;145.008;2023-02-28T11:10:46;101037.99;;;18.07;44.02
54870;BME280;40756;-37.950;145.008;2023-02-28T11:13:21;101032.79;;;17.90;44.18
54870;BME280;40756;-37.950;145.008;2023-02-28T11:15:54;101033.77;;;18.36;43.34
54870;BME280;40756;-37.950;145.008;2023-02-28T11:18:29;101039.41;;;18.73;43.29
54870;BME280;40756;-37.950;145.008;2023-02-28T11:21:01;101041.68;;;18.01;43.64
54870;BME280;40756;-37.950;145.008;2023-02-28T11:23:32;101051.37;;;17.72;44.03
54870;BME280;40756;-37.950;145.008;2023-02-28T11:26:04;101048.39;;;18.10;43.35
54870;BME280;40756;-37.950;145.008;2023-02-28T11:28:35;101049.24;;;18.60;42.48
54870;BME280;40756;-37.950;145.008;2023-02-28T11:31:15;101052.67;;;18.22;43.09
54870;BME280;40756;-37.950;145.008;2023-02-28T11:33:47;101056.61;;;18.64;42.41
54870;BME280;40756;-37.950;145.008;2023-02-28T11:36:21;101055.42;;;16.98;45.49
54870;BME280;40756;-37.950;145.008;2023-02-28T11:38:52;101054.33;;;18.18;44.99
54870;BME280;40756;-37.950;145.008;2023-02-28T11:41:37;101049.89;;;18.36;45.16
54870;BME280;40756;-37.950;145.008;2023-02-28T11:44:26;101047.42;;;17.68;46.72
54870;BME280;40756;-37.950;145.008;2023-02-28T11:47:00;101042.71;;;17.67;46.47
54870;BME280;40756;-37.950;145.008;2023-02-28T11:49:37;101038.26;;;17.94;46.29
54870;BME280;40756;-37.950;145.008;2023-02-28T11:52:29;101036.88;;;18.20;45.94
54870;BME280;40756;-37.950;145.008;2023-02-28T11:55:12;101035.07;;;17.35;46.15
54870;BME280;40756;-37.950;145.008;2023-02-28T11:58:29;101038.64;;;17.14;47.96
54870;BME280;40756;-37.950;145.008;2023-02-28T12:01:12;101044.93;;;17.06;48.43
54870;BME280;40756;-37.950;145.008;2023-02-28T12:03:55;101041.14;;;17.60;47.68
54870;BME280;40756;-37.950;145.008;2023-02-28T12:06:33;101040.15;;;17.79;47.09
54870;BME280;40756;-37.950;145.008;2023-02-28T12:09:19;101038.71;;;17.56;47.22
54870;BME280;40756;-37.950;145.008;2023-02-28T12:11:56;101037.03;;;17.71;46.02
54870;BME280;40756;-37.950;145.008;2023-02-28T12:14:46;101040.11;;;17.73;45.49
54870;BME280;40756;-37.950;145.008;2023-02-28T12:17:29;101032.01;;;17.82;45.84
54870;BME280;40756;-37.950;145.008;2023-02-28T12:20:08;101032.56;;;17.20;45.81
54870;BME280;40756;-37.950;145.008;2023-02-28T12:22:48;101025.52;;;17.94;44.50
54870;BME280;40756;-37.950;145.008;2023-02-28T12:25:40;101028.36;;;18.10;44.41
54870;BME280;40756;-37.950;145.008;2023-02-28T12:28:16;101027.29;;;18.17;43.64
54870;BME280;40756;-37.950;145.008;2023-02-28T12:30:53;101026.08;;;17.95;43.28
54870;BME280;40756;-37.950;145.008;2023-02-28T12:33:31;101028.24;;;18.12;43.13
54870;BME280;40756;-37.950;145.008;2023-02-28T12:36:07;101029.49;;;17.68;43.44
54870;BME280;40756;-37.950;145.008;2023-02-28T12:38:43;101028.53;;;17.97;42.67
54870;BME280;40756;-37.950;145.008;2023-02-28T12:41:16;101029.64;;;18.06;42.30
54870;BME280;40756;-37.950;145.008;2023-02-28T12:43:49;101032.05;;;17.51;43.54
54870;BME280;40756;-37.950;145.008;2023-02-28T12:46:24;101026.83;;;17.89;42.70
54870;BME280;40756;-37.950;145.008;2023-02-28T12:48:56;101024.36;;;18.02;42.62
54870;BME280;40756;-37.950;145.008;2023-02-28T12:51:28;101024.98;;;18.34;42.37
54870;BME280;40756;-37.950;145.008;2023-02-28T12:54:09;101026.79;;;17.91;42.69